Terminal Aerodrome Forecast
Issued by NWS

Home | Current Version | Previous Version | Text Only | Print | Product List | Glossary On
Versions: 1 2 3 4 5 6 7 8 9 10 11 12 13 14 15 16 17 18 19
000
FTUS42 KMLB 040527
TAFISM
TAF
KISM 040527Z 0406/0506 20007KT P6SM FEW120 OVC250
     FM041300 22007KT P6SM SCT030 SCT100 BKN250
     FM041900 23008KT P6SM VCTS SCT030CB BKN250 PROB30 0420/0422 4SM
      TSRA BKN030CB BKN060
     FM050000 20005KT P6SM SCT040 SCT250
      AMD NOT SKED TIL 041200=

USA.gov is the U.S. government's official web portal to all federal, state and local government web resources and services.